Time;durP1;ratioP1;P1;durP2;ratioP2;P2;SDS_P1;SDS_P2;PMS_P1;PMS_P2;Temp;Humidity;BMP_temperature;BMP_pressure;BME280_temperature;BME280_humidity;BME280_pressure;Samples;Min_cycle;Max_cycle;Signal;HPM_P1;HPM_P2
2022/06/24 00:00:10;;;;;;;3.25;2.22;;;23.10;99.90;;;;;;5052494;28;20200;-74
2022/06/24 00:02:38;;;;;;;2.50;2.30;;;23.10;99.90;;;;;;5052338;28;20207;-71
2022/06/24 00:05:09;;;;;;;2.40;2.20;;;23.10;99.90;;;;;;5052496;28;20211;-72
2022/06/24 00:07:50;;;;;;;3.65;2.30;;;23.10;99.90;;;;;;5052095;28;20787;-72
2022/06/24 00:10:22;;;;;;;2.47;2.28;;;23.00;99.90;;;;;;5052504;28;20596;-72
2022/06/24 00:12:50;;;;;;;4.15;2.58;;;23.00;99.90;;;;;;5044885;28;20210;-72
2022/06/24 00:15:33;;;;;;;8.68;2.40;;;23.00;99.90;;;;;;5052282;28;20203;-72
2022/06/24 00:18:14;;;;;;;3.22;2.63;;;22.90;99.90;;;;;;5045737;28;20589;-71
2022/06/24 00:20:48;;;;;;;3.70;2.67;;;22.90;99.90;;;;;;5051916;28;20208;-72
2022/06/24 00:23:16;;;;;;;3.40;2.97;;;22.90;99.90;;;;;;5052290;28;20204;-71
2022/06/24 00:25:43;;;;;;;3.65;2.63;;;22.90;99.90;;;;;;5051728;28;20760;-71
2022/06/24 00:28:13;;;;;;;6.65;2.78;;;22.90;99.90;;;;;;5051882;28;20180;-72
2022/06/24 00:30:41;;;;;;;4.50;2.85;;;22.80;99.90;;;;;;5052385;28;20172;-71
2022/06/24 00:33:14;;;;;;;2.75;2.40;;;22.80;99.90;;;;;;5034068;28;20260;-72
2022/06/24 00:35:56;;;;;;;3.20;2.53;;;22.80;99.90;;;;;;5051677;28;20219;-72
2022/06/24 00:38:34;;;;;;;3.08;2.78;;;22.70;99.90;;;;;;5048192;28;20227;-71
2022/06/24 00:41:04;;;;;;;2.97;2.70;;;22.60;99.90;;;;;;5051671;28;20207;-72
2022/06/24 00:43:45;;;;;;;3.72;2.45;;;22.60;99.90;;;;;;5051652;28;20223;-72
2022/06/24 00:46:24;;;;;;;4.72;3.03;;;22.50;99.90;;;;;;5051831;28;20180;-72
2022/06/24 00:48:52;;;;;;;4.93;2.70;;;22.50;99.90;;;;;;5044385;28;20171;-72
2022/06/24 00:51:20;;;;;;;3.70;2.53;;;22.50;99.90;;;;;;5051220;28;20265;-72
2022/06/24 00:53:51;;;;;;;3.78;2.95;;;22.50;99.90;;;;;;5051452;28;20211;-72
2022/06/24 00:56:24;;;;;;;3.58;2.80;;;22.40;99.90;;;;;;5033507;28;20207;-72
2022/06/24 00:58:53;;;;;;;4.72;3.10;;;22.40;99.90;;;;;;5041766;28;20219;-72
2022/06/24 01:01:33;;;;;;;3.15;2.80;;;22.40;99.90;;;;;;5050471;28;20219;-70
2022/06/24 01:03:59;;;;;;;5.35;2.72;;;22.40;99.90;;;;;;5048542;28;20191;-72
2022/06/24 01:06:26;;;;;;;4.05;2.65;;;22.30;99.90;;;;;;5051176;28;20219;-72
2022/06/24 01:08:52;;;;;;;3.88;3.00;;;22.30;99.90;;;;;;5050932;28;20220;-72
2022/06/24 01:11:43;;;;;;;7.65;3.10;;;22.20;99.90;;;;;;5051094;28;20218;-72
2022/06/24 01:14:10;;;;;;;3.47;2.95;;;22.20;99.90;;;;;;5031037;28;20569;-73
2022/06/24 01:16:36;;;;;;;3.28;2.90;;;22.20;99.90;;;;;;5051021;28;20214;-72
2022/06/24 01:19:05;;;;;;;3.60;2.92;;;22.20;99.90;;;;;;5050617;28;20180;-73
2022/06/24 01:21:33;;;;;;;4.22;3.20;;;22.20;99.90;;;;;;5051407;28;20188;-72
2022/06/24 01:24:23;;;;;;;3.70;2.65;;;22.20;99.90;;;;;;5051067;28;20585;-72
2022/06/24 01:26:51;;;;;;;4.10;2.97;;;22.20;99.90;;;;;;5043143;28;20294;-72
2022/06/24 01:29:18;;;;;;;4.20;3.10;;;22.10;99.90;;;;;;5032655;28;20295;-72
2022/06/24 01:31:48;;;;;;;6.53;3.30;;;22.10;99.90;;;;;;5050568;28;20230;-73
2022/06/24 01:34:14;;;;;;;3.28;2.97;;;22.10;99.90;;;;;;5050881;28;20171;-72
2022/06/24 01:36:40;;;;;;;4.80;3.30;;;22.00;99.90;;;;;;5051190;28;20179;-72
2022/06/24 01:39:07;;;;;;;4.97;3.13;;;22.00;99.90;;;;;;5050608;28;20200;-72
2022/06/24 01:41:33;;;;;;;3.83;3.10;;;22.00;99.90;;;;;;5050290;28;20234;-72
2022/06/24 01:43:59;;;;;;;5.30;3.00;;;21.90;99.90;;;;;;5050824;28;20215;-72
2022/06/24 01:46:25;;;;;;;4.47;3.53;;;22.00;99.90;;;;;;5050559;28;20200;-72
2022/06/24 01:48:51;;;;;;;5.68;3.00;;;22.00;99.90;;;;;;5050942;28;20697;-72
2022/06/24 01:51:18;;;;;;;3.92;3.10;;;21.90;99.90;;;;;;5050295;28;20204;-72
2022/06/24 01:53:44;;;;;;;4.45;3.00;;;21.90;99.90;;;;;;5050402;28;20226;-72
2022/06/24 01:56:10;;;;;;;6.47;3.30;;;21.90;99.90;;;;;;5050384;28;20215;-71
2022/06/24 01:58:35;;;;;;;7.30;3.25;;;21.90;99.90;;;;;;5050064;28;20565;-72
2022/06/24 02:01:01;;;;;;;3.67;2.75;;;21.90;99.90;;;;;;5050446;28;20178;-72
2022/06/24 02:03:29;;;;;;;6.65;3.47;;;21.90;99.90;;;;;;5050693;28;20542;-71
2022/06/24 02:06:00;;;;;;;3.60;3.30;;;21.80;99.90;;;;;;5050460;28;20706;-73
2022/06/24 02:08:25;;;;;;;4.82;3.28;;;21.80;99.90;;;;;;5050030;28;20213;-72
2022/06/24 02:13:35;;;;;;;4.65;3.65;;;21.70;99.90;;;;;;5050390;28;20262;-72
2022/06/24 02:16:03;;;;;;;3.97;3.47;;;21.70;99.90;;;;;;5051208;28;20668;-73
2022/06/24 02:18:30;;;;;;;4.10;3.65;;;21.70;99.90;;;;;;5054584;28;20259;-71
2022/06/24 02:20:57;;;;;;;5.57;3.70;;;21.70;99.90;;;;;;5054163;28;20203;-71
2022/06/24 02:23:22;;;;;;;4.35;3.55;;;21.70;99.90;;;;;;5054286;28;20234;-71
2022/06/24 02:25:50;;;;;;;4.57;3.42;;;21.70;99.90;;;;;;5054215;28;20641;-72
2022/06/24 02:28:16;;;;;;;7.70;4.05;;;21.70;99.90;;;;;;5050071;28;20310;-72
2022/06/24 02:30:45;;;;;;;4.30;3.65;;;21.60;99.90;;;;;;5054615;28;20528;-72
2022/06/24 02:33:12;;;;;;;4.38;3.72;;;21.60;99.90;;;;;;5049466;28;20211;-72
2022/06/24 02:35:38;;;;;;;4.10;3.50;;;21.70;99.90;;;;;;5036075;28;20524;-72
2022/06/24 02:38:04;;;;;;;4.57;3.80;;;21.60;99.90;;;;;;5053610;28;20684;-71
2022/06/24 02:40:45;;;;;;;4.85;3.85;;;21.60;99.90;;;;;;5054065;28;20825;-71
2022/06/24 02:43:13;;;;;;;6.35;3.72;;;21.60;99.90;;;;;;5053942;28;20252;-71
2022/06/24 02:45:43;;;;;;;6.97;3.78;;;21.60;99.90;;;;;;5036512;28;20183;-72
2022/06/24 02:48:08;;;;;;;5.03;3.65;;;21.60;99.90;;;;;;5051633;28;20211;-71
2022/06/24 02:50:45;;;;;;;4.82;3.88;;;21.60;99.90;;;;;;5053171;28;20210;-70
2022/06/24 02:53:12;;;;;;;5.20;3.72;;;21.60;99.90;;;;;;5051219;28;20223;-72
2022/06/24 02:55:38;;;;;;;6.78;3.70;;;21.60;99.90;;;;;;5050763;28;20280;-72
2022/06/24 02:58:05;;;;;;;5.50;3.53;;;21.60;99.90;;;;;;5052137;28;20176;-70
2022/06/24 03:00:31;;;;;;;5.65;3.53;;;21.60;99.90;;;;;;5053970;28;20544;-72
2022/06/24 03:02:57;;;;;;;8.23;3.55;;;21.60;99.90;;;;;;5053662;28;20211;-73
2022/06/24 03:05:22;;;;;;;11.13;4.22;;;21.50;99.90;;;;;;5035257;28;20692;-71
2022/06/24 03:07:48;;;;;;;5.57;3.35;;;21.50;99.90;;;;;;5053527;28;20688;-72
2022/06/24 03:10:15;;;;;;;5.90;3.63;;;21.50;99.90;;;;;;5053476;28;20176;-72
2022/06/24 03:12:40;;;;;;;7.05;4.20;;;21.50;99.90;;;;;;5053533;28;20219;-73
2022/06/24 03:15:07;;;;;;;4.03;3.30;;;21.50;99.90;;;;;;5053591;28;20207;-72
2022/06/24 03:17:32;;;;;;;5.57;3.92;;;21.50;99.90;;;;;;5034817;28;20203;-72
2022/06/24 03:19:58;;;;;;;3.42;3.13;;;21.60;99.90;;;;;;5035101;28;20215;-72
2022/06/24 03:22:23;;;;;;;3.83;3.42;;;21.60;99.90;;;;;;5052870;28;20711;-71
2022/06/24 03:24:49;;;;;;;4.63;3.58;;;21.80;99.90;;;;;;5035751;28;20260;-72
2022/06/24 03:27:15;;;;;;;5.70;3.45;;;22.70;99.90;;;;;;5052825;28;20234;-72
2022/06/24 03:29:40;;;;;;;3.80;3.30;;;23.80;99.90;;;;;;5052353;28;20277;-72
2022/06/24 03:32:06;;;;;;;4.43;3.80;;;24.60;99.90;;;;;;5053007;28;20330;-72
2022/06/24 03:34:31;;;;;;;3.65;3.33;;;24.90;99.90;;;;;;5052773;28;20699;-72
2022/06/24 03:36:57;;;;;;;3.95;3.17;;;25.40;99.90;;;;;;5052930;28;20187;-71
2022/06/24 03:39:22;;;;;;;4.28;3.45;;;25.90;99.90;;;;;;5034697;28;20176;-71
2022/06/24 03:41:48;;;;;;;7.63;3.83;;;25.20;99.90;;;;;;5052862;28;20719;-72
2022/06/24 03:44:14;;;;;;;5.68;3.53;;;25.30;99.90;;;;;;5052932;28;20588;-73
2022/06/24 03:46:39;;;;;;;8.32;6.15;;;26.10;99.90;;;;;;5052189;28;20230;-72
2022/06/24 03:49:05;;;;;;;5.40;3.92;;;26.80;99.90;;;;;;5052653;28;20179;-72
2022/06/24 03:51:30;;;;;;;6.50;3.80;;;27.20;99.90;;;;;;5052659;28;20208;-72
2022/06/24 03:53:56;;;;;;;6.30;3.60;;;27.80;99.90;;;;;;5052523;28;20216;-72
2022/06/24 03:56:21;;;;;;;5.28;3.85;;;28.00;99.90;;;;;;5052321;28;20264;-71
2022/06/24 03:58:47;;;;;;;4.78;3.13;;;28.20;99.90;;;;;;5052258;28;20285;-73
2022/06/24 04:01:12;;;;;;;5.82;3.30;;;28.80;99.90;;;;;;5034718;28;20249;-72
2022/06/24 04:03:38;;;;;;;6.85;3.60;;;29.20;99.90;;;;;;5052664;28;20172;-71
2022/06/24 04:06:03;;;;;;;6.57;3.22;;;29.10;99.90;;;;;;5052413;28;20286;-72
2022/06/24 04:08:29;;;;;;;4.57;3.85;;;29.30;99.90;;;;;;5051908;28;20230;-72
2022/06/24 04:10:55;;;;;;;5.28;3.67;;;29.40;99.90;;;;;;5052241;28;20223;-72
2022/06/24 04:13:20;;;;;;;5.10;3.78;;;30.20;99.70;;;;;;5052323;28;20239;-71
2022/06/24 04:15:49;;;;;;;3.78;3.47;;;29.50;99.50;;;;;;5052786;28;20179;-72
2022/06/24 04:18:16;;;;;;;4.25;3.40;;;29.60;99.90;;;;;;5051618;28;20714;-72
2022/06/24 04:20:42;;;;;;;4.80;3.60;;;29.10;99.80;;;;;;5051910;28;20211;-72
2022/06/24 04:23:07;;;;;;;5.43;3.45;;;29.50;99.40;;;;;;5052096;28;20294;-72
2022/06/24 04:25:33;;;;;;;4.75;3.38;;;30.20;98.70;;;;;;5034775;28;20307;-72
2022/06/24 04:27:59;;;;;;;3.67;2.80;;;30.00;97.80;;;;;;5052194;28;20182;-72
2022/06/24 04:30:25;;;;;;;4.75;3.80;;;30.30;97.70;;;;;;5052315;28;20225;-71
2022/06/24 04:32:50;;;;;;;4.75;4.15;;;30.70;97.00;;;;;;5051918;28;20215;-72
2022/06/24 04:35:16;;;;;;;4.00;3.50;;;31.10;96.30;;;;;;5052092;28;20208;-72
2022/06/24 04:37:42;;;;;;;4.22;3.00;;;31.30;95.80;;;;;;5051205;28;20218;-71
2022/06/24 04:40:10;;;;;;;4.25;3.28;;;31.50;95.30;;;;;;5050578;28;20176;-72
2022/06/24 04:42:36;;;;;;;4.50;3.38;;;32.10;94.50;;;;;;5051805;28;20207;-73
2022/06/24 04:45:02;;;;;;;4.28;3.13;;;32.10;93.90;;;;;;5051640;28;20203;-72
2022/06/24 04:47:28;;;;;;;6.03;3.30;;;32.50;93.10;;;;;;5032960;28;20218;-72
2022/06/24 04:49:53;;;;;;;6.72;3.33;;;32.50;92.20;;;;;;5051077;28;20718;-73
2022/06/24 04:52:19;;;;;;;3.72;3.33;;;32.50;92.60;;;;;;5051252;28;20220;-73
2022/06/24 04:54:45;;;;;;;6.97;3.40;;;32.90;92.10;;;;;;5049988;28;20167;-72
2022/06/24 04:57:11;;;;;;;4.03;3.15;;;33.30;91.00;;;;;;5051664;28;20303;-72
2022/06/24 04:59:37;;;;;;;6.00;3.35;;;32.90;90.70;;;;;;5051176;28;20612;-72
2022/06/24 05:02:03;;;;;;;4.30;2.95;;;32.20;91.10;;;;;;5051264;28;20222;-72
2022/06/24 05:04:28;;;;;;;7.28;3.35;;;32.40;91.20;;;;;;5051333;28;20199;-72
2022/06/24 05:06:54;;;;;;;5.10;3.03;;;32.90;90.90;;;;;;5051533;28;20722;-72
2022/06/24 05:09:20;;;;;;;6.25;3.22;;;32.90;90.70;;;;;;5051159;28;20283;-73
2022/06/24 05:11:48;;;;;;;10.70;3.50;;;33.00;90.30;;;;;;5025381;28;20638;-72
2022/06/24 05:14:14;;;;;;;4.43;2.80;;;32.90;90.40;;;;;;5051433;28;20202;-73
2022/06/24 05:16:41;;;;;;;5.65;4.72;;;33.20;90.30;;;;;;5033348;28;20203;-72
2022/06/24 05:19:09;;;;;;;4.00;3.25;;;34.20;87.30;;;;;;5033087;28;20649;-72
2022/06/24 05:21:35;;;;;;;3.95;2.70;;;34.20;87.20;;;;;;5051247;28;20242;-72
2022/06/24 05:24:01;;;;;;;6.63;3.35;;;34.10;86.20;;;;;;5033178;28;20211;-72
2022/06/24 05:26:27;;;;;;;5.80;2.95;;;33.50;86.30;;;;;;5050943;28;20206;-71
2022/06/24 05:28:53;;;;;;;4.55;2.92;;;33.80;86.20;;;;;;5050667;28;20222;-73
2022/06/24 05:31:18;;;;;;;5.30;3.05;;;33.80;84.80;;;;;;5050667;28;20294;-73
2022/06/24 05:33:44;;;;;;;3.33;2.85;;;33.80;85.60;;;;;;5051331;28;20581;-72
2022/06/24 05:36:10;;;;;;;6.70;3.72;;;34.50;83.60;;;;;;5050671;28;20719;-72
2022/06/24 05:38:35;;;;;;;7.63;2.92;;;34.00;83.70;;;;;;5050432;28;20203;-72
2022/06/24 05:41:03;;;;;;;6.00;2.95;;;34.10;83.10;;;;;;5032768;28;20282;-72
2022/06/24 05:43:28;;;;;;;6.10;3.40;;;34.50;82.20;;;;;;5050658;28;20571;-72
2022/06/24 05:45:54;;;;;;;5.47;3.22;;;34.00;82.30;;;;;;5051159;28;20178;-72
2022/06/24 05:48:20;;;;;;;4.70;2.90;;;34.50;81.30;;;;;;5050719;28;20282;-72
2022/06/24 05:50:45;;;;;;;5.20;2.70;;;34.20;80.90;;;;;;5050311;28;20203;-73
2022/06/24 05:55:58;;;;;;;4.57;3.10;;;32.90;82.80;;;;;;5026154;28;20265;-71
2022/06/24 05:58:27;;;;;;;4.55;2.75;;;32.90;82.60;;;;;;5028375;28;20212;-71
2022/06/24 06:00:54;;;;;;;5.80;3.67;;;33.50;82.90;;;;;;5030690;28;20204;-71
2022/06/24 06:03:24;;;;;;;5.05;3.15;;;34.10;81.60;;;;;;5034418;28;20269;-72
2022/06/24 06:05:50;;;;;;;4.47;2.83;;;34.50;80.80;;;;;;5043670;28;20296;-72
2022/06/24 06:08:16;;;;;;;5.13;3.13;;;34.90;80.50;;;;;;5046186;28;20691;-72
2022/06/24 06:10:43;;;;;;;3.13;2.58;;;35.30;78.70;;;;;;5043388;28;20206;-71
2022/06/24 06:13:12;;;;;;;5.45;3.13;;;36.00;75.70;;;;;;5045725;28;20211;-71
2022/06/24 06:15:40;;;;;;;3.38;2.58;;;35.90;76.10;;;;;;5043005;28;20175;-71
2022/06/24 06:18:06;;;;;;;4.43;2.90;;;36.80;76.00;;;;;;5042119;28;20252;-71
2022/06/24 06:20:32;;;;;;;4.53;2.83;;;37.70;73.30;;;;;;5044779;28;20684;-72
2022/06/24 06:22:57;;;;;;;5.78;2.97;;;37.10;71.90;;;;;;5038682;28;20222;-71
2022/06/24 06:25:23;;;;;;;3.42;2.80;;;35.90;73.80;;;;;;5042446;28;20691;-72
2022/06/24 06:27:50;;;;;;;3.80;2.80;;;35.60;74.50;;;;;;5040878;28;20215;-71
2022/06/24 06:30:15;;;;;;;3.70;2.60;;;35.90;73.70;;;;;;5038704;28;20703;-71
2022/06/24 06:32:41;;;;;;;3.47;2.67;;;35.30;74.60;;;;;;5036855;28;20222;-71
2022/06/24 06:35:07;;;;;;;4.30;2.80;;;35.40;74.20;;;;;;5041179;28;20210;-71
2022/06/24 06:37:33;;;;;;;4.75;2.70;;;36.00;74.10;;;;;;5036186;28;20211;-72
2022/06/24 06:39:59;;;;;;;6.03;2.65;;;35.60;72.90;;;;;;5041769;28;20172;-72
2022/06/24 06:42:24;;;;;;;6.18;3.15;;;35.60;73.30;;;;;;5038131;28;20225;-72
2022/06/24 06:44:50;;;;;;;5.82;3.03;;;35.50;73.50;;;;;;5032400;28;20223;-71
2022/06/24 06:47:16;;;;;;;10.63;3.15;;;36.00;73.30;;;;;;5034530;28;20211;-71
2022/06/24 06:49:41;;;;;;;4.85;3.25;;;36.10;72.80;;;;;;5037854;28;20213;-72
2022/06/24 06:52:07;;;;;;;5.93;3.03;;;36.60;72.40;;;;;;5038896;28;20253;-72
2022/06/24 06:54:33;;;;;;;4.25;2.67;;;36.90;71.90;;;;;;5032845;28;20196;-72
2022/06/24 06:56:58;;;;;;;4.20;2.72;;;37.30;70.50;;;;;;5040287;28;20203;-72
2022/06/24 06:59:24;;;;;;;4.80;2.65;;;36.60;70.00;;;;;;5036443;28;20708;-72
2022/06/24 07:01:49;;;;;;;6.63;3.38;;;36.40;71.10;;;;;;5040424;28;20576;-72
2022/06/24 07:04:15;;;;;;;3.58;2.63;;;35.90;71.50;;;;;;5049021;28;20218;-72
2022/06/24 07:06:41;;;;;;;4.35;2.92;;;36.40;70.50;;;;;;5045425;28;20195;-71
2022/06/24 07:09:07;;;;;;;5.47;2.90;;;35.30;71.00;;;;;;5043843;28;20204;-71
2022/06/24 07:11:33;;;;;;;8.65;3.25;;;35.50;71.50;;;;;;5049570;28;20203;-71
2022/06/24 07:13:59;;;;;;;5.35;3.08;;;35.30;72.40;;;;;;5047951;28;20222;-72
2022/06/24 07:16:24;;;;;;;4.40;2.67;;;35.70;71.30;;;;;;5042285;28;20207;-71
2022/06/24 07:18:50;;;;;;;5.75;2.47;;;35.70;70.10;;;;;;5051039;28;20262;-71
2022/06/24 07:21:16;;;;;;;3.47;3.05;;;36.20;69.10;;;;;;5042496;28;20208;-71
2022/06/24 07:23:41;;;;;;;2.55;2.35;;;36.00;70.00;;;;;;5050872;28;20540;-72
2022/06/24 07:26:07;;;;;;;4.57;3.10;;;36.00;69.80;;;;;;5045198;28;20219;-72
2022/06/24 07:28:34;;;;;;;5.05;3.20;;;36.60;68.10;;;;;;5050221;28;20211;-72
2022/06/24 07:31:00;;;;;;;3.30;2.67;;;37.30;67.60;;;;;;5038415;28;20258;-74
2022/06/24 07:33:25;;;;;;;3.28;2.85;;;36.80;67.10;;;;;;5024889;28;20899;-71
2022/06/24 07:35:51;;;;;;;3.83;2.88;;;37.30;66.50;;;;;;5041580;28;20722;-71
2022/06/24 07:38:18;;;;;;;4.57;2.70;;;37.20;66.60;;;;;;5025025;28;20628;-69
2022/06/24 07:40:43;;;;;;;3.58;2.97;;;36.30;65.80;;;;;;5043751;28;20203;-69
2022/06/24 07:43:09;;;;;;;3.53;2.60;;;37.10;65.60;;;;;;5040742;28;20739;-71
2022/06/24 07:45:35;;;;;;;5.15;2.70;;;37.20;65.40;;;;;;5043577;28;20548;-71
2022/06/24 07:48:01;;;;;;;5.13;2.60;;;36.10;65.30;;;;;;5040935;28;20207;-71
2022/06/24 07:50:27;;;;;;;4.50;3.17;;;36.20;66.00;;;;;;5036703;28;20691;-71
2022/06/24 07:52:52;;;;;;;3.22;2.28;;;36.70;65.60;;;;;;5037066;28;20226;-72
2022/06/24 07:58:16;;;;;;;4.00;2.50;;;37.30;62.70;;;;;;5012879;28;20212;-72
2022/06/24 08:00:41;;;;;;;4.05;2.90;;;38.10;63.00;;;;;;5042184;28;20176;-72
2022/06/24 08:03:07;;;;;;;3.28;2.83;;;39.20;61.30;;;;;;5038890;28;20227;-73
2022/06/24 08:05:33;;;;;;;6.88;3.08;;;39.20;60.80;;;;;;5030019;28;20213;-70
2022/06/24 08:07:58;;;;;;;5.88;3.00;;;38.40;60.80;;;;;;5048193;28;20214;-70
2022/06/24 08:10:24;;;;;;;3.17;2.80;;;38.00;62.00;;;;;;5045386;28;20233;-71
2022/06/24 08:12:49;;;;;;;3.78;2.58;;;37.40;62.70;;;;;;5049675;28;20252;-72
2022/06/24 08:15:16;;;;;;;3.53;2.38;;;36.60;63.00;;;;;;5050454;28;20240;-71
2022/06/24 08:17:42;;;;;;;4.72;2.50;;;35.70;63.80;;;;;;5041540;28;20752;-70
2022/06/24 08:20:08;;;;;;;3.83;2.60;;;35.60;63.90;;;;;;5047051;28;20302;-70
2022/06/24 08:22:34;;;;;;;4.80;2.85;;;35.60;64.70;;;;;;5043668;28;20208;-71
2022/06/24 08:25:01;;;;;;;3.38;2.83;;;35.30;65.00;;;;;;5048716;28;20186;-71
2022/06/24 08:27:26;;;;;;;4.93;2.85;;;34.70;66.30;;;;;;5045600;28;20232;-71
2022/06/24 08:29:52;;;;;;;4.65;2.55;;;35.40;66.00;;;;;;5048593;28;20290;-70
2022/06/24 08:32:18;;;;;;;6.18;3.03;;;36.10;64.90;;;;;;5046530;28;20218;-70
2022/06/24 08:34:44;;;;;;;6.45;3.00;;;36.80;64.60;;;;;;5042220;28;20206;-73
2022/06/24 08:37:09;;;;;;;2.88;2.55;;;37.20;63.90;;;;;;5042086;28;20418;-73
2022/06/24 08:39:35;;;;;;;3.42;2.88;;;37.00;63.40;;;;;;5037247;28;20176;-71
2022/06/24 08:42:03;;;;;;;3.72;3.13;;;36.60;63.90;;;;;;5047193;28;20301;-71
2022/06/24 08:44:28;;;;;;;4.78;2.85;;;35.80;64.80;;;;;;5037209;28;20232;-71
2022/06/24 08:46:54;;;;;;;9.20;3.17;;;35.80;64.80;;;;;;5043134;28;20219;-70
2022/06/24 08:49:20;;;;;;;4.82;2.45;;;35.20;65.30;;;;;;5038999;28;20223;-73
2022/06/24 08:51:47;;;;;;;4.20;2.92;;;35.70;65.50;;;;;;5036679;28;20172;-73
2022/06/24 08:54:17;;;;;;;3.78;2.80;;;34.70;65.30;;;;;;5042793;28;20216;-71
2022/06/24 08:56:43;;;;;;;7.93;2.20;;;35.00;66.40;;;;;;5037319;28;20303;-71
2022/06/24 08:59:09;;;;;;;4.82;2.80;;;34.60;67.20;;;;;;5045187;28;20287;-70
2022/06/24 09:01:43;;;;;;;4.25;2.58;;;34.70;66.90;;;;;;5037752;28;20212;-72
2022/06/24 09:04:10;;;;;;;3.30;2.40;;;35.70;66.20;;;;;;5040840;28;20190;-73
2022/06/24 09:06:40;;;;;;;3.97;2.90;;;35.60;65.40;;;;;;5042347;28;20171;-72
2022/06/24 09:09:07;;;;;;;3.47;2.40;;;35.40;65.90;;;;;;5042767;28;20204;-71
2022/06/24 09:11:40;;;;;;;5.32;3.15;;;35.40;65.50;;;;;;5048361;28;20211;-72
2022/06/24 09:14:06;;;;;;;6.30;3.00;;;35.00;65.90;;;;;;5044493;28;20212;-71
2022/06/24 09:16:35;;;;;;;4.10;2.55;;;33.80;66.90;;;;;;5040780;28;20215;-70
2022/06/24 09:19:03;;;;;;;3.80;2.88;;;33.80;66.80;;;;;;5046672;28;20187;-70
2022/06/24 09:21:39;;;;;;;3.60;2.47;;;34.40;66.80;;;;;;5041582;28;20168;-71
2022/06/24 09:24:06;;;;;;;4.35;2.75;;;35.00;66.10;;;;;;5046523;28;20214;-71
2022/06/24 09:26:40;;;;;;;3.13;2.80;;;34.80;66.20;;;;;;5039744;28;20326;-72
2022/06/24 09:29:09;;;;;;;4.15;2.22;;;34.80;66.20;;;;;;5035487;28;20701;-73
2022/06/24 09:31:35;;;;;;;3.28;2.88;;;34.40;66.90;;;;;;5040253;28;20235;-72
2022/06/24 09:34:08;;;;;;;4.63;3.00;;;35.00;66.90;;;;;;5031332;28;20631;-72
2022/06/24 09:36:35;;;;;;;4.72;2.55;;;34.40;66.60;;;;;;5042110;28;20652;-72
2022/06/24 09:39:07;;;;;;;9.30;3.10;;;33.30;67.90;;;;;;5033694;28;20235;-72
2022/06/24 09:41:47;;;;;;;3.92;2.85;;;33.00;68.70;;;;;;5041756;28;20245;-75
2022/06/24 09:44:14;;;;;;;7.68;2.72;;;33.40;69.50;;;;;;5037118;28;20208;-74
2022/06/24 09:46:40;;;;;;;4.00;2.70;;;33.40;69.40;;;;;;5042805;28;20208;-76
2022/06/24 09:49:10;;;;;;;5.25;2.78;;;32.90;69.40;;;;;;5040758;28;20175;-74
2022/06/24 09:51:36;;;;;;;5.22;2.40;;;32.70;68.50;;;;;;5034007;28;20165;-74
2022/06/24 09:54:02;;;;;;;3.30;2.50;;;32.20;70.10;;;;;;5044980;28;20215;-71
2022/06/24 09:56:28;;;;;;;4.30;2.47;;;32.10;69.40;;;;;;5033203;28;20214;-74
2022/06/24 10:01:41;;;;;;;3.10;2.78;;;32.70;69.00;;;;;;5037606;28;20591;-74
2022/06/24 10:04:11;;;;;;;3.90;2.80;;;33.50;68.40;;;;;;5043582;28;20176;-72
2022/06/24 10:06:37;;;;;;;2.60;2.40;;;33.50;68.00;;;;;;5036242;28;20233;-73
2022/06/24 10:09:07;;;;;;;13.32;3.03;;;32.80;68.20;;;;;;5041240;28;20200;-71
2022/06/24 10:11:34;;;;;;;2.55;2.08;;;32.40;64.50;;;;;;5046333;28;20211;-73
2022/06/24 10:14:01;;;;;;;3.65;2.30;;;32.20;66.30;;;;;;5043109;28;20219;-73
2022/06/24 10:16:26;;;;;;;4.03;2.55;;;32.00;66.80;;;;;;5037971;28;20533;-70
2022/06/24 10:18:53;;;;;;;3.58;2.50;;;32.00;67.50;;;;;;5047526;28;20180;-72
2022/06/24 10:21:19;;;;;;;2.92;2.20;;;31.90;67.80;;;;;;5039727;28;20655;-71
2022/06/24 10:23:53;;;;;;;10.00;2.28;;;31.70;66.90;;;;;;5048602;28;20204;-72
2022/06/24 10:26:29;;;;;;;4.70;2.45;;;31.90;66.30;;;;;;5040792;28;20582;-73
2022/06/24 10:29:04;;;;;;;2.83;2.42;;;32.10;67.40;;;;;;5035792;28;20211;-71
2022/06/24 10:31:45;;;;;;;6.07;2.65;;;31.90;68.40;;;;;;5036727;28;20219;-72
2022/06/24 10:34:20;;;;;;;7.78;2.92;;;32.10;69.50;;;;;;5029101;28;20214;-71
2022/06/24 10:36:47;;;;;;;4.05;2.53;;;32.20;69.60;;;;;;5036859;28;20536;-74
2022/06/24 10:39:15;;;;;;;7.15;2.63;;;32.50;69.50;;;;;;5045060;28;20207;-72
2022/06/24 10:41:44;;;;;;;2.85;2.63;;;32.30;69.20;;;;;;5049202;28;20362;-77
2022/06/24 10:44:23;;;;;;;5.93;2.80;;;32.00;69.20;;;;;;5047565;28;20215;-74
2022/06/24 10:47:07;;;;;;;4.53;2.60;;;31.90;69.80;;;;;;5036052;28;20210;-76
2022/06/24 10:50:00;;;;;;;5.13;2.75;;;31.60;70.80;;;;;;5046394;28;20213;-74
2022/06/24 10:52:37;;;;;;;3.70;2.47;;;31.20;71.40;;;;;;5035309;28;20774;-73
2022/06/24 10:55:24;;;;;;;6.72;3.20;;;31.40;71.60;;;;;;5040413;28;20279;-73
2022/06/24 10:58:01;;;;;;;3.08;2.50;;;31.50;71.80;;;;;;5034463;28;20202;-74
2022/06/24 11:00:37;;;;;;;3.03;2.40;;;31.30;72.10;;;;;;5041546;28;20737;-75
2022/06/24 11:03:03;;;;;;;3.60;3.10;;;31.30;72.60;;;;;;5044215;28;20223;-78
2022/06/24 11:05:34;;;;;;;5.22;2.85;;;31.00;73.30;;;;;;5037051;28;20208;-71
2022/06/24 11:08:03;;;;;;;4.07;2.88;;;31.10;74.30;;;;;;5041308;28;20294;-74
2022/06/24 11:10:31;;;;;;;5.82;2.50;;;31.30;73.90;;;;;;5039158;28;20302;-72
2022/06/24 11:13:02;;;;;;;2.97;2.67;;;31.70;74.10;;;;;;5050605;28;20719;-72
2022/06/24 11:15:34;;;;;;;4.03;2.67;;;32.00;73.30;;;;;;5038145;28;20179;-73
2022/06/24 11:18:10;;;;;;;4.15;3.00;;;32.00;72.70;;;;;;5039420;28;20768;-72
2022/06/24 11:20:38;;;;;;;5.38;2.80;;;32.20;72.30;;;;;;5040899;28;20278;-72
2022/06/24 11:23:11;;;;;;;5.13;3.28;;;32.50;72.20;;;;;;5030622;28;20292;-72
2022/06/24 11:25:39;;;;;;;5.68;3.08;;;32.40;70.70;;;;;;5037464;28;20277;-74
2022/06/24 11:28:05;;;;;;;4.95;2.90;;;31.90;71.80;;;;;;5037904;28;20238;-73
2022/06/24 11:30:31;;;;;;;6.00;2.80;;;31.80;71.00;;;;;;5030630;28;20195;-74
2022/06/24 11:32:59;;;;;;;3.67;2.80;;;31.80;70.80;;;;;;5037033;28;20208;-70
2022/06/24 11:35:26;;;;;;;5.78;2.58;;;31.90;69.80;;;;;;5047541;28;20723;-71
2022/06/24 11:37:56;;;;;;;5.07;2.85;;;31.90;69.70;;;;;;5027671;28;20243;-74
2022/06/24 11:40:28;;;;;;;3.92;3.05;;;31.90;70.10;;;;;;5036017;28;20688;-74
2022/06/24 11:42:54;;;;;;;3.90;3.00;;;32.00;70.00;;;;;;5046326;28;20811;-72
2022/06/24 11:45:36;;;;;;;5.18;3.20;;;31.90;72.00;;;;;;5044568;28;20291;-71
2022/06/24 11:48:03;;;;;;;3.22;2.92;;;31.70;72.70;;;;;;5032605;28;20222;-70
2022/06/24 11:50:29;;;;;;;7.55;3.05;;;31.90;72.10;;;;;;5042608;28;20208;-71
2022/06/24 11:52:59;;;;;;;5.32;3.15;;;32.10;72.10;;;;;;5056454;23;20231;-74
2022/06/24 11:55:30;;;;;;;4.55;2.45;;;31.80;69.10;;;;;;5012530;28;20208;-74
2022/06/24 11:57:58;;;;;;;6.05;2.20;;;31.90;68.90;;;;;;4995636;28;20184;-73
2022/06/24 12:00:30;;;;;;;3.08;2.78;;;32.00;68.30;;;;;;5005989;28;20703;-77
2022/06/24 12:02:57;;;;;;;2.72;2.28;;;31.90;68.50;;;;;;5002360;28;20300;-76
2022/06/24 12:05:26;;;;;;;2.95;2.40;;;32.00;68.60;;;;;;5009698;28;20232;-73
2022/06/24 12:07:53;;;;;;;3.05;2.47;;;32.10;68.00;;;;;;4986854;28;20213;-75
2022/06/24 12:10:19;;;;;;;5.47;2.65;;;31.80;68.20;;;;;;5012632;28;20213;-77
2022/06/24 12:12:56;;;;;;;6.90;2.72;;;31.70;68.80;;;;;;4998162;28;20213;-75
2022/06/24 12:15:35;;;;;;;7.22;2.50;;;31.60;69.00;;;;;;4984857;28;20236;-75
2022/06/24 12:18:02;;;;;;;5.88;2.70;;;32.00;69.10;;;;;;4986386;28;20215;-75
2022/06/24 12:20:29;;;;;;;6.75;2.63;;;32.50;69.20;;;;;;5006386;28;20228;-74
2022/06/24 12:23:25;;;;;;;3.55;2.47;;;32.90;67.50;;;;;;5002525;28;20210;-72
2022/06/24 12:25:51;;;;;;;3.78;2.75;;;32.80;66.90;;;;;;4966108;28;20305;-75
2022/06/24 12:28:25;;;;;;;3.97;2.90;;;32.70;67.40;;;;;;4998629;28;20209;-74
2022/06/24 12:30:55;;;;;;;6.57;2.47;;;32.60;67.60;;;;;;4991495;28;20188;-74
2022/06/24 12:33:21;;;;;;;5.10;2.50;;;32.20;67.30;;;;;;5005150;28;20219;-77
2022/06/24 12:35:49;;;;;;;4.78;2.40;;;32.20;67.70;;;;;;5006214;28;20202;-75
2022/06/24 12:38:14;;;;;;;5.45;2.63;;;32.00;67.90;;;;;;5010716;28;20201;-75
2022/06/24 12:40:41;;;;;;;4.53;2.17;;;31.90;68.20;;;;;;4979581;28;22458;-76
2022/06/24 12:43:11;;;;;;;4.47;2.40;;;32.10;67.60;;;;;;5001999;28;20299;-75
2022/06/24 12:45:39;;;;;;;3.00;2.20;;;32.30;67.30;;;;;;4996389;28;20188;-75
2022/06/24 12:50:57;;;;;;;8.65;2.65;;;32.70;66.70;;;;;;5000856;28;20721;-71
2022/06/24 12:53:22;;;;;;;4.57;2.65;;;32.50;67.00;;;;;;5001474;28;20221;-74
2022/06/24 12:55:49;;;;;;;4.28;2.10;;;32.30;66.20;;;;;;5003555;28;20220;-73
2022/06/24 12:58:15;;;;;;;3.30;2.50;;;32.30;66.10;;;;;;4981625;28;20211;-77
2022/06/24 13:00:40;;;;;;;5.13;2.15;;;32.50;65.30;;;;;;5000179;28;20186;-75
2022/06/24 13:03:06;;;;;;;8.45;2.38;;;32.40;64.80;;;;;;4996435;28;20222;-78